sensor_id;sensor_type;location;lat;lon;timestamp;temperature;humidity
69208;SHT31;56321;47.662;8.878;2023-03-13T00:00:49;10.78;65.53
69208;SHT31;56321;47.662;8.878;2023-03-13T00:03:14;10.80;65.62
69208;SHT31;56321;47.662;8.878;2023-03-13T00:05:40;10.84;65.66
69208;SHT31;56321;47.662;8.878;2023-03-13T00:08:05;10.84;65.59
69208;SHT31;56321;47.662;8.878;2023-03-13T00:10:30;10.83;65.41
69208;SHT31;56321;47.662;8.878;2023-03-13T00:12:55;10.84;65.19
69208;SHT31;56321;47.662;8.878;2023-03-13T00:15:21;10.84;65.07
69208;SHT31;56321;47.662;8.878;2023-03-13T00:17:46;10.85;65.13
69208;SHT31;56321;47.662;8.878;2023-03-13T00:20:11;10.85;65.08
69208;SHT31;56321;47.662;8.878;2023-03-13T00:22:37;10.84;64.87
69208;SHT31;56321;47.662;8.878;2023-03-13T00:25:02;10.85;65.07
69208;SHT31;56321;47.662;8.878;2023-03-13T00:27:32;10.85;65.04
69208;SHT31;56321;47.662;8.878;2023-03-13T00:29:58;10.87;65.01
69208;SHT31;56321;47.662;8.878;2023-03-13T00:32:23;10.83;65.05
69208;SHT31;56321;47.662;8.878;2023-03-13T00:34:48;10.87;64.99
69208;SHT31;56321;47.662;8.878;2023-03-13T00:37:14;10.85;64.97
69208;SHT31;56321;47.662;8.878;2023-03-13T00:39:39;10.83;64.84
69208;SHT31;56321;47.662;8.878;2023-03-13T00:42:04;10.85;64.77
69208;SHT31;56321;47.662;8.878;2023-03-13T00:44:30;10.81;64.96
69208;SHT31;56321;47.662;8.878;2023-03-13T00:46:55;10.83;65.30
69208;SHT31;56321;47.662;8.878;2023-03-13T00:49:20;10.87;65.37
69208;SHT31;56321;47.662;8.878;2023-03-13T00:51:46;10.83;65.53
69208;SHT31;56321;47.662;8.878;2023-03-13T00:54:11;10.81;65.57
69208;SHT31;56321;47.662;8.878;2023-03-13T00:56:36;10.80;65.69
69208;SHT31;56321;47.662;8.878;2023-03-13T00:59:02;10.78;65.68
69208;SHT31;56321;47.662;8.878;2023-03-13T01:01:30;10.75;65.81
69208;SHT31;56321;47.662;8.878;2023-03-13T01:03:59;10.74;65.75
69208;SHT31;56321;47.662;8.878;2023-03-13T01:06:27;10.73;65.96
69208;SHT31;56321;47.662;8.878;2023-03-13T01:08:56;10.71;66.04
69208;SHT31;56321;47.662;8.878;2023-03-13T01:11:24;10.68;66.06
69208;SHT31;56321;47.662;8.878;2023-03-13T01:13:54;10.68;66.06
69208;SHT31;56321;47.662;8.878;2023-03-13T01:16:20;10.67;66.20
69208;SHT31;56321;47.662;8.878;2023-03-13T01:18:48;10.60;66.30
69208;SHT31;56321;47.662;8.878;2023-03-13T01:21:15;10.63;66.43
69208;SHT31;56321;47.662;8.878;2023-03-13T01:23:41;10.60;66.25
69208;SHT31;56321;47.662;8.878;2023-03-13T01:26:07;10.61;66.42
69208;SHT31;56321;47.662;8.878;2023-03-13T01:28:34;10.61;66.45
69208;SHT31;56321;47.662;8.878;2023-03-13T01:31:00;10.61;66.36
69208;SHT31;56321;47.662;8.878;2023-03-13T01:33:25;10.63;66.45
69208;SHT31;56321;47.662;8.878;2023-03-13T01:35:51;10.61;66.62
69208;SHT31;56321;47.662;8.878;2023-03-13T01:38:16;10.63;66.44
69208;SHT31;56321;47.662;8.878;2023-03-13T01:40:47;10.64;66.31
69208;SHT31;56321;47.662;8.878;2023-03-13T01:51:23;10.64;66.64
69208;SHT31;56321;47.662;8.878;2023-03-13T01:56:26;10.66;66.83
69208;SHT31;56321;47.662;8.878;2023-03-13T01:58:55;10.63;66.71
69208;SHT31;56321;47.662;8.878;2023-03-13T02:01:21;10.63;66.80
69208;SHT31;56321;47.662;8.878;2023-03-13T02:03:48;10.66;66.83
69208;SHT31;56321;47.662;8.878;2023-03-13T02:06:15;10.67;66.97
69208;SHT31;56321;47.662;8.878;2023-03-13T02:09:02;10.64;66.89
69208;SHT31;56321;47.662;8.878;2023-03-13T02:11:48;10.64;66.76
69208;SHT31;56321;47.662;8.878;2023-03-13T02:14:18;10.68;66.67
69208;SHT31;56321;47.662;8.878;2023-03-13T02:16:44;10.68;66.74
69208;SHT31;56321;47.662;8.878;2023-03-13T02:19:46;10.67;66.69
69208;SHT31;56321;47.662;8.878;2023-03-13T02:27:26;10.68;66.63
69208;SHT31;56321;47.662;8.878;2023-03-13T02:29:52;10.66;66.63
69208;SHT31;56321;47.662;8.878;2023-03-13T02:32:17;10.66;66.61
69208;SHT31;56321;47.662;8.878;2023-03-13T02:34:46;10.68;66.64
69208;SHT31;56321;47.662;8.878;2023-03-13T02:37:13;10.67;66.54
69208;SHT31;56321;47.662;8.878;2023-03-13T02:39:42;10.68;66.51
69208;SHT31;56321;47.662;8.878;2023-03-13T02:42:10;10.68;66.59
69208;SHT31;56321;47.662;8.878;2023-03-13T02:44:40;10.70;66.69
69208;SHT31;56321;47.662;8.878;2023-03-13T02:47:06;10.67;66.78
69208;SHT31;56321;47.662;8.878;2023-03-13T02:49:34;10.70;66.74
69208;SHT31;56321;47.662;8.878;2023-03-13T02:54:39;10.68;66.93
69208;SHT31;56321;47.662;8.878;2023-03-13T02:57:05;10.68;66.96
69208;SHT31;56321;47.662;8.878;2023-03-13T02:59:31;10.68;66.89
69208;SHT31;56321;47.662;8.878;2023-03-13T03:01:56;10.67;66.96
69208;SHT31;56321;47.662;8.878;2023-03-13T03:04:23;10.67;67.12
69208;SHT31;56321;47.662;8.878;2023-03-13T03:06:50;10.68;67.05
69208;SHT31;56321;47.662;8.878;2023-03-13T03:09:16;10.66;67.18
69208;SHT31;56321;47.662;8.878;2023-03-13T03:11:42;10.60;67.18
69208;SHT31;56321;47.662;8.878;2023-03-13T03:14:08;10.57;67.23
69208;SHT31;56321;47.662;8.878;2023-03-13T03:16:34;10.54;67.17
69208;SHT31;56321;47.662;8.878;2023-03-13T03:18:59;10.57;67.07
69208;SHT31;56321;47.662;8.878;2023-03-13T03:21:25;10.56;66.98
69208;SHT31;56321;47.662;8.878;2023-03-13T03:23:50;10.56;66.97
69208;SHT31;56321;47.662;8.878;2023-03-13T03:26:15;10.56;67.04
69208;SHT31;56321;47.662;8.878;2023-03-13T03:28:41;10.60;66.86
69208;SHT31;56321;47.662;8.878;2023-03-13T03:31:08;10.64;66.68
69208;SHT31;56321;47.662;8.878;2023-03-13T03:33:34;10.64;66.46
69208;SHT31;56321;47.662;8.878;2023-03-13T03:36:05;10.68;66.14
69208;SHT31;56321;47.662;8.878;2023-03-13T03:38:31;10.70;66.06
69208;SHT31;56321;47.662;8.878;2023-03-13T03:40:57;10.73;66.18
69208;SHT31;56321;47.662;8.878;2023-03-13T03:43:22;10.77;66.14
69208;SHT31;56321;47.662;8.878;2023-03-13T03:45:48;10.80;65.60
69208;SHT31;56321;47.662;8.878;2023-03-13T03:48:13;10.81;65.58
69208;SHT31;56321;47.662;8.878;2023-03-13T03:50:39;10.84;65.36
69208;SHT31;56321;47.662;8.878;2023-03-13T03:53:04;10.87;65.11
69208;SHT31;56321;47.662;8.878;2023-03-13T03:55:29;10.88;64.85
69208;SHT31;56321;47.662;8.878;2023-03-13T03:57:55;10.94;64.52
69208;SHT31;56321;47.662;8.878;2023-03-13T04:00:20;10.93;64.06
69208;SHT31;56321;47.662;8.878;2023-03-13T04:02:46;10.94;64.36
69208;SHT31;56321;47.662;8.878;2023-03-13T04:05:11;10.98;64.26
69208;SHT31;56321;47.662;8.878;2023-03-13T04:07:37;10.98;64.01
69208;SHT31;56321;47.662;8.878;2023-03-13T04:10:03;10.98;63.94
69208;SHT31;56321;47.662;8.878;2023-03-13T04:12:29;11.02;63.85
69208;SHT31;56321;47.662;8.878;2023-03-13T04:14:54;11.04;63.95
69208;SHT31;56321;47.662;8.878;2023-03-13T04:17:20;11.07;63.97
69208;SHT31;56321;47.662;8.878;2023-03-13T04:19:45;11.11;63.97
69208;SHT31;56321;47.662;8.878;2023-03-13T04:22:10;11.14;63.83
69208;SHT31;56321;47.662;8.878;2023-03-13T04:24:36;11.12;63.85
69208;SHT31;56321;47.662;8.878;2023-03-13T04:27:01;11.12;63.81
69208;SHT31;56321;47.662;8.878;2023-03-13T04:29:28;11.16;63.76
69208;SHT31;56321;47.662;8.878;2023-03-13T04:31:54;11.16;63.79
69208;SHT31;56321;47.662;8.878;2023-03-13T04:34:19;11.19;63.77
69208;SHT31;56321;47.662;8.878;2023-03-13T04:36:45;11.21;63.73
69208;SHT31;56321;47.662;8.878;2023-03-13T04:39:10;11.25;63.67
69208;SHT31;56321;47.662;8.878;2023-03-13T04:41:36;11.26;63.56
69208;SHT31;56321;47.662;8.878;2023-03-13T04:44:01;11.28;63.51
69208;SHT31;56321;47.662;8.878;2023-03-13T04:46:26;11.28;63.55
69208;SHT31;56321;47.662;8.878;2023-03-13T04:48:51;11.31;63.37
69208;SHT31;56321;47.662;8.878;2023-03-13T04:51:17;11.29;63.31
69208;SHT31;56321;47.662;8.878;2023-03-13T04:53:42;11.32;63.45
69208;SHT31;56321;47.662;8.878;2023-03-13T04:56:08;11.33;63.30
69208;SHT31;56321;47.662;8.878;2023-03-13T04:58:33;11.35;63.20
69208;SHT31;56321;47.662;8.878;2023-03-13T05:00:59;11.35;63.27
69208;SHT31;56321;47.662;8.878;2023-03-13T05:03:24;11.38;63.04
69208;SHT31;56321;47.662;8.878;2023-03-13T05:05:49;11.39;62.90
69208;SHT31;56321;47.662;8.878;2023-03-13T05:08:15;11.44;62.86
69208;SHT31;56321;47.662;8.878;2023-03-13T05:10:43;11.42;62.82
69208;SHT31;56321;47.662;8.878;2023-03-13T05:13:08;11.44;62.63
69208;SHT31;56321;47.662;8.878;2023-03-13T05:15:34;11.44;62.66
69208;SHT31;56321;47.662;8.878;2023-03-13T05:17:59;11.46;62.52
69208;SHT31;56321;47.662;8.878;2023-03-13T05:20:24;11.50;62.45
69208;SHT31;56321;47.662;8.878;2023-03-13T05:22:50;11.53;62.61
69208;SHT31;56321;47.662;8.878;2023-03-13T05:25:15;11.52;62.46
69208;SHT31;56321;47.662;8.878;2023-03-13T05:27:41;11.52;62.23
69208;SHT31;56321;47.662;8.878;2023-03-13T05:30:07;11.53;62.05
69208;SHT31;56321;47.662;8.878;2023-03-13T05:32:33;11.50;61.95
69208;SHT31;56321;47.662;8.878;2023-03-13T05:34:58;11.52;62.04
69208;SHT31;56321;47.662;8.878;2023-03-13T05:37:23;11.53;61.97
69208;SHT31;56321;47.662;8.878;2023-03-13T05:39:49;11.47;61.90
69208;SHT31;56321;47.662;8.878;2023-03-13T05:42:14;11.49;62.03
69208;SHT31;56321;47.662;8.878;2023-03-13T05:44:39;11.50;62.06
69208;SHT31;56321;47.662;8.878;2023-03-13T05:47:05;11.50;61.92
69208;SHT31;56321;47.662;8.878;2023-03-13T05:49:30;11.47;61.87
69208;SHT31;56321;47.662;8.878;2023-03-13T05:51:55;11.44;62.17
69208;SHT31;56321;47.662;8.878;2023-03-13T05:54:21;11.46;62.30
69208;SHT31;56321;47.662;8.878;2023-03-13T05:56:46;11.46;62.04
69208;SHT31;56321;47.662;8.878;2023-03-13T05:59:14;11.49;62.09
69208;SHT31;56321;47.662;8.878;2023-03-13T06:01:40;11.49;61.98
69208;SHT31;56321;47.662;8.878;2023-03-13T06:04:05;11.46;62.11
69208;SHT31;56321;47.662;8.878;2023-03-13T06:06:31;11.47;62.05
69208;SHT31;56321;47.662;8.878;2023-03-13T06:08:56;11.47;61.99
69208;SHT31;56321;47.662;8.878;2023-03-13T06:11:21;11.49;62.16
69208;SHT31;56321;47.662;8.878;2023-03-13T06:13:47;11.52;62.41
69208;SHT31;56321;47.662;8.878;2023-03-13T06:16:12;11.53;62.47
69208;SHT31;56321;47.662;8.878;2023-03-13T06:18:37;11.52;62.50
69208;SHT31;56321;47.662;8.878;2023-03-13T06:21:03;11.53;62.77
69208;SHT31;56321;47.662;8.878;2023-03-13T06:23:28;11.56;63.05
69208;SHT31;56321;47.662;8.878;2023-03-13T06:25:54;11.53;63.31
69208;SHT31;56321;47.662;8.878;2023-03-13T06:28:19;11.55;63.72
69208;SHT31;56321;47.662;8.878;2023-03-13T06:30:45;11.56;63.57
69208;SHT31;56321;47.662;8.878;2023-03-13T06:33:10;11.55;63.79
69208;SHT31;56321;47.662;8.878;2023-03-13T06:35:39;11.55;63.82
69208;SHT31;56321;47.662;8.878;2023-03-13T06:38:05;11.58;63.76
69208;SHT31;56321;47.662;8.878;2023-03-13T06:40:30;11.56;63.82
69208;SHT31;56321;47.662;8.878;2023-03-13T06:42:55;11.58;63.81
69208;SHT31;56321;47.662;8.878;2023-03-13T06:45:21;11.62;63.99
69208;SHT31;56321;47.662;8.878;2023-03-13T06:47:46;11.63;64.26
69208;SHT31;56321;47.662;8.878;2023-03-13T06:50:11;11.66;64.40
69208;SHT31;56321;47.662;8.878;2023-03-13T06:52:37;11.70;64.23
69208;SHT31;56321;47.662;8.878;2023-03-13T06:55:03;11.77;64.25
69208;SHT31;56321;47.662;8.878;2023-03-13T06:57:28;11.77;64.03
69208;SHT31;56321;47.662;8.878;2023-03-13T06:59:54;11.86;63.98
69208;SHT31;56321;47.662;8.878;2023-03-13T07:02:19;11.86;64.06
69208;SHT31;56321;47.662;8.878;2023-03-13T07:04:44;11.87;63.68
69208;SHT31;56321;47.662;8.878;2023-03-13T07:07:11;11.93;63.55
69208;SHT31;56321;47.662;8.878;2023-03-13T07:09:36;11.94;63.64
69208;SHT31;56321;47.662;8.878;2023-03-13T07:12:02;12.04;64.09
69208;SHT31;56321;47.662;8.878;2023-03-13T07:14:28;12.10;64.14
69208;SHT31;56321;47.662;8.878;2023-03-13T07:16:54;12.18;64.38
69208;SHT31;56321;47.662;8.878;2023-03-13T07:19:19;12.25;64.34
69208;SHT31;56321;47.662;8.878;2023-03-13T07:21:44;12.32;64.65
69208;SHT31;56321;47.662;8.878;2023-03-13T07:24:11;12.38;64.58
69208;SHT31;56321;47.662;8.878;2023-03-13T07:26:36;12.46;64.64
69208;SHT31;56321;47.662;8.878;2023-03-13T07:29:02;12.55;64.74
69208;SHT31;56321;47.662;8.878;2023-03-13T07:31:28;12.67;64.46
69208;SHT31;56321;47.662;8.878;2023-03-13T07:33:57;12.82;64.11
69208;SHT31;56321;47.662;8.878;2023-03-13T07:36:23;12.99;64.19
69208;SHT31;56321;47.662;8.878;2023-03-13T07:38:49;13.15;63.56
69208;SHT31;56321;47.662;8.878;2023-03-13T07:41:16;13.30;63.03
69208;SHT31;56321;47.662;8.878;2023-03-13T07:43:42;13.45;62.96
69208;SHT31;56321;47.662;8.878;2023-03-13T07:46:11;13.55;62.54
69208;SHT31;56321;47.662;8.878;2023-03-13T07:48:39;13.68;62.60
69208;SHT31;56321;47.662;8.878;2023-03-13T07:51:07;13.69;62.36
69208;SHT31;56321;47.662;8.878;2023-03-13T07:53:33;13.73;61.74
69208;SHT31;56321;47.662;8.878;2023-03-13T07:56:04;13.72;61.33
69208;SHT31;56321;47.662;8.878;2023-03-13T07:58:34;13.70;61.19
69208;SHT31;56321;47.662;8.878;2023-03-13T08:01:00;13.72;61.49
69208;SHT31;56321;47.662;8.878;2023-03-13T08:03:26;13.75;61.37
69208;SHT31;56321;47.662;8.878;2023-03-13T08:06:06;13.83;61.38
69208;SHT31;56321;47.662;8.878;2023-03-13T08:08:32;13.97;61.80
69208;SHT31;56321;47.662;8.878;2023-03-13T08:11:02;14.12;61.43
69208;SHT31;56321;47.662;8.878;2023-03-13T08:13:28;14.27;60.93
69208;SHT31;56321;47.662;8.878;2023-03-13T08:16:04;14.40;60.21
69208;SHT31;56321;47.662;8.878;2023-03-13T08:18:29;14.45;60.67
69208;SHT31;56321;47.662;8.878;2023-03-13T08:21:00;14.45;60.58
69208;SHT31;56321;47.662;8.878;2023-03-13T08:23:26;14.45;60.49
69208;SHT31;56321;47.662;8.878;2023-03-13T08:25:52;14.47;60.61
69208;SHT31;56321;47.662;8.878;2023-03-13T08:28:17;14.49;60.65
69208;SHT31;56321;47.662;8.878;2023-03-13T08:30:42;14.78;60.33
69208;SHT31;56321;47.662;8.878;2023-03-13T08:33:08;15.50;60.24
69208;SHT31;56321;47.662;8.878;2023-03-13T08:35:33;16.30;59.06
69208;SHT31;56321;47.662;8.878;2023-03-13T08:37:58;16.88;57.13
69208;SHT31;56321;47.662;8.878;2023-03-13T08:40:24;17.00;55.61
69208;SHT31;56321;47.662;8.878;2023-03-13T08:42:49;17.02;55.26
69208;SHT31;56321;47.662;8.878;2023-03-13T08:45:14;17.18;55.22
69208;SHT31;56321;47.662;8.878;2023-03-13T08:47:40;17.49;54.35
69208;SHT31;56321;47.662;8.878;2023-03-13T08:50:06;17.96;53.88
69208;SHT31;56321;47.662;8.878;2023-03-13T08:52:31;18.44;52.83
69208;SHT31;56321;47.662;8.878;2023-03-13T08:54:56;18.84;51.65
69208;SHT31;56321;47.662;8.878;2023-03-13T08:57:22;19.13;50.97
69208;SHT31;56321;47.662;8.878;2023-03-13T08:59:47;19.42;49.92
69208;SHT31;56321;47.662;8.878;2023-03-13T09:02:13;19.72;49.33
69208;SHT31;56321;47.662;8.878;2023-03-13T09:04:44;20.06;48.46
69208;SHT31;56321;47.662;8.878;2023-03-13T09:07:09;20.78;48.22
69208;SHT31;56321;47.662;8.878;2023-03-13T09:09:34;21.70;46.29
69208;SHT31;56321;47.662;8.878;2023-03-13T09:12:00;22.57;44.80
69208;SHT31;56321;47.662;8.878;2023-03-13T09:14:25;23.33;43.53
69208;SHT31;56321;47.662;8.878;2023-03-13T09:16:50;24.08;42.10
69208;SHT31;56321;47.662;8.878;2023-03-13T09:19:15;24.76;40.71
69208;SHT31;56321;47.662;8.878;2023-03-13T09:21:41;25.34;39.88
69208;SHT31;56321;47.662;8.878;2023-03-13T09:24:07;25.95;38.10
69208;SHT31;56321;47.662;8.878;2023-03-13T09:26:32;26.32;36.96
69208;SHT31;56321;47.662;8.878;2023-03-13T09:28:58;26.54;35.38
69208;SHT31;56321;47.662;8.878;2023-03-13T09:31:26;26.50;35.18
69208;SHT31;56321;47.662;8.878;2023-03-13T09:33:52;26.54;34.76
69208;SHT31;56321;47.662;8.878;2023-03-13T09:36:19;26.54;34.80
69208;SHT31;56321;47.662;8.878;2023-03-13T09:38:45;26.84;34.42
69208;SHT31;56321;47.662;8.878;2023-03-13T09:49:09;28.28;31.64
69208;SHT31;56321;47.662;8.878;2023-03-13T09:51:38;28.16;31.82
69208;SHT31;56321;47.662;8.878;2023-03-13T09:54:27;27.61;31.16
69208;SHT31;56321;47.662;8.878;2023-03-13T09:56:59;27.36;31.30
69208;SHT31;56321;47.662;8.878;2023-03-13T09:59:28;27.53;32.19
69208;SHT31;56321;47.662;8.878;2023-03-13T10:01:59;28.00;31.46
69208;SHT31;56321;47.662;8.878;2023-03-13T10:04:37;28.60;30.66
69208;SHT31;56321;47.662;8.878;2023-03-13T10:07:03;29.18;30.13
69208;SHT31;56321;47.662;8.878;2023-03-13T10:09:31;29.86;29.50
69208;SHT31;56321;47.662;8.878;2023-03-13T10:12:19;30.58;28.12
69208;SHT31;56321;47.662;8.878;2023-03-13T10:15:14;31.10;26.76
69208;SHT31;56321;47.662;8.878;2023-03-13T10:17:41;31.53;27.81
69208;SHT31;56321;47.662;8.878;2023-03-13T10:22:50;31.75;27.25
69208;SHT31;56321;47.662;8.878;2023-03-13T10:25:33;31.54;25.72
69208;SHT31;56321;47.662;8.878;2023-03-13T10:27:59;31.44;26.84
69208;SHT31;56321;47.662;8.878;2023-03-13T10:32:53;31.26;26.89
69208;SHT31;56321;47.662;8.878;2023-03-13T10:35:24;31.09;27.03
69208;SHT31;56321;47.662;8.878;2023-03-13T10:37:59;30.57;26.94
69208;SHT31;56321;47.662;8.878;2023-03-13T10:40:26;29.83;27.31
69208;SHT31;56321;47.662;8.878;2023-03-13T10:42:59;29.14;27.38
69208;SHT31;56321;47.662;8.878;2023-03-13T10:45:26;28.69;28.87
69208;SHT31;56321;47.662;8.878;2023-03-13T10:47:59;28.36;28.74
69208;SHT31;56321;47.662;8.878;2023-03-13T10:50:27;28.15;29.22
69208;SHT31;56321;47.662;8.878;2023-03-13T10:52:56;28.36;29.25
69208;SHT31;56321;47.662;8.878;2023-03-13T10:55:24;28.87;28.82
69208;SHT31;56321;47.662;8.878;2023-03-13T10:57:57;29.49;27.97
69208;SHT31;56321;47.662;8.878;2023-03-13T11:02:58;29.94;27.28
69208;SHT31;56321;47.662;8.878;2023-03-13T11:05:39;30.03;27.15
69208;SHT31;56321;47.662;8.878;2023-03-13T11:08:17;30.67;26.48
69208;SHT31;56321;47.662;8.878;2023-03-13T11:10:55;31.29;25.86
69208;SHT31;56321;47.662;8.878;2023-03-13T11:13:42;31.68;25.63
69208;SHT31;56321;47.662;8.878;2023-03-13T11:16:20;31.99;25.91
69208;SHT31;56321;47.662;8.878;2023-03-13T11:21:23;32.53;25.27
69208;SHT31;56321;47.662;8.878;2023-03-13T11:23:57;32.84;24.89
69208;SHT31;56321;47.662;8.878;2023-03-13T11:26:34;32.90;24.77
69208;SHT31;56321;47.662;8.878;2023-03-13T11:34:13;32.78;24.53
69208;SHT31;56321;47.662;8.878;2023-03-13T11:37:00;32.80;24.31
69208;SHT31;56321;47.662;8.878;2023-03-13T11:45:04;32.48;24.76
69208;SHT31;56321;47.662;8.878;2023-03-13T11:58:40;32.02;25.45
69208;SHT31;56321;47.662;8.878;2023-03-13T12:06:01;32.35;25.85
69208;SHT31;56321;47.662;8.878;2023-03-13T12:08:34;32.02;25.79
69208;SHT31;56321;47.662;8.878;2023-03-13T12:11:12;31.67;25.97
69208;SHT31;56321;47.662;8.878;2023-03-13T12:13:41;31.58;26.75
69208;SHT31;56321;47.662;8.878;2023-03-13T12:16:18;31.61;26.67
69208;SHT31;56321;47.662;8.878;2023-03-13T12:18:45;31.71;26.84
69208;SHT31;56321;47.662;8.878;2023-03-13T12:21:25;31.46;27.73
69208;SHT31;56321;47.662;8.878;2023-03-13T12:27:00;30.85;27.18
69208;SHT31;56321;47.662;8.878;2023-03-13T12:29:42;30.48;27.28
69208;SHT31;56321;47.662;8.878;2023-03-13T12:32:13;30.17;28.16
69208;SHT31;56321;47.662;8.878;2023-03-13T12:38:02;29.04;28.94
69208;SHT31;56321;47.662;8.878;2023-03-13T12:43:33;28.18;29.65
69208;SHT31;56321;47.662;8.878;2023-03-13T12:57:17;26.33;32.98
69208;SHT31;56321;47.662;8.878;2023-03-13T12:59:46;26.10;32.85
69208;SHT31;56321;47.662;8.878;2023-03-13T13:02:16;25.90;33.07
69208;SHT31;56321;47.662;8.878;2023-03-13T13:04:45;25.57;33.45
69208;SHT31;56321;47.662;8.878;2023-03-13T13:12:28;24.84;35.29
69208;SHT31;56321;47.662;8.878;2023-03-13T13:14:57;24.73;34.79
69208;SHT31;56321;47.662;8.878;2023-03-13T13:19:53;24.28;34.91
69208;SHT31;56321;47.662;8.878;2023-03-13T13:25:01;23.94;35.70
69208;SHT31;56321;47.662;8.878;2023-03-13T13:27:47;23.73;35.86
69208;SHT31;56321;47.662;8.878;2023-03-13T13:37:36;23.55;36.95
69208;SHT31;56321;47.662;8.878;2023-03-13T13:42:50;23.33;37.01
69208;SHT31;56321;47.662;8.878;2023-03-13T13:47:45;23.10;37.90
69208;SHT31;56321;47.662;8.878;2023-03-13T13:52:44;23.04;38.16
69208;SHT31;56321;47.662;8.878;2023-03-13T13:55:30;22.95;37.97
69208;SHT31;56321;47.662;8.878;2023-03-13T13:58:04;22.94;38.34
69208;SHT31;56321;47.662;8.878;2023-03-13T14:00:52;22.91;37.99
69208;SHT31;56321;47.662;8.878;2023-03-13T14:03:24;22.90;38.15
69208;SHT31;56321;47.662;8.878;2023-03-13T14:05:53;22.87;38.26
69208;SHT31;56321;47.662;8.878;2023-03-13T14:08:23;22.80;38.32
69208;SHT31;56321;47.662;8.878;2023-03-13T14:11:20;22.74;38.50
69208;SHT31;56321;47.662;8.878;2023-03-13T14:14:07;22.71;38.52
69208;SHT31;56321;47.662;8.878;2023-03-13T14:16:33;22.70;38.28
69208;SHT31;56321;47.662;8.878;2023-03-13T14:18:58;22.60;38.66
69208;SHT31;56321;47.662;8.878;2023-03-13T14:21:24;22.52;38.71
69208;SHT31;56321;47.662;8.878;2023-03-13T14:23:51;22.43;38.88
69208;SHT31;56321;47.662;8.878;2023-03-13T14:26:23;22.40;38.50
69208;SHT31;56321;47.662;8.878;2023-03-13T14:28:55;22.35;38.55
69208;SHT31;56321;47.662;8.878;2023-03-13T14:31:26;22.29;38.77
69208;SHT31;56321;47.662;8.878;2023-03-13T14:33:52;22.28;39.22
69208;SHT31;56321;47.662;8.878;2023-03-13T14:36:17;22.22;39.42
69208;SHT31;56321;47.662;8.878;2023-03-13T14:38:58;22.18;39.55
69208;SHT31;56321;47.662;8.878;2023-03-13T14:41:38;22.15;39.20
69208;SHT31;56321;47.662;8.878;2023-03-13T14:44:27;22.04;39.31
69208;SHT31;56321;47.662;8.878;2023-03-13T14:46:58;21.92;39.45
69208;SHT31;56321;47.662;8.878;2023-03-13T14:49:26;21.88;39.56
69208;SHT31;56321;47.662;8.878;2023-03-13T14:54:34;21.79;39.93
69208;SHT31;56321;47.662;8.878;2023-03-13T14:57:05;21.71;39.31
69208;SHT31;56321;47.662;8.878;2023-03-13T14:59:30;21.60;39.23
69208;SHT31;56321;47.662;8.878;2023-03-13T15:02:17;21.44;39.53
69208;SHT31;56321;47.662;8.878;2023-03-13T15:05:03;21.37;40.22
69208;SHT31;56321;47.662;8.878;2023-03-13T15:07:39;21.33;40.25
69208;SHT31;56321;47.662;8.878;2023-03-13T15:10:33;21.27;40.46
69208;SHT31;56321;47.662;8.878;2023-03-13T15:13:14;21.27;40.65
69208;SHT31;56321;47.662;8.878;2023-03-13T15:15:39;21.30;40.53
69208;SHT31;56321;47.662;8.878;2023-03-13T15:20:41;21.27;40.82
69208;SHT31;56321;47.662;8.878;2023-03-13T15:23:10;21.24;41.00
69208;SHT31;56321;47.662;8.878;2023-03-13T15:25:37;21.23;41.47
69208;SHT31;56321;47.662;8.878;2023-03-13T15:28:12;21.20;40.79
69208;SHT31;56321;47.662;8.878;2023-03-13T15:30:38;21.16;40.79
69208;SHT31;56321;47.662;8.878;2023-03-13T15:33:03;21.12;40.92
69208;SHT31;56321;47.662;8.878;2023-03-13T15:35:31;21.04;41.31
69208;SHT31;56321;47.662;8.878;2023-03-13T15:37:58;21.03;41.30
69208;SHT31;56321;47.662;8.878;2023-03-13T15:40:25;20.96;41.45
69208;SHT31;56321;47.662;8.878;2023-03-13T15:42:52;20.91;41.74
69208;SHT31;56321;47.662;8.878;2023-03-13T15:45:17;20.84;41.60
69208;SHT31;56321;47.662;8.878;2023-03-13T15:47:43;20.79;41.91
69208;SHT31;56321;47.662;8.878;2023-03-13T15:50:15;20.74;42.21
69208;SHT31;56321;47.662;8.878;2023-03-13T15:52:41;20.72;42.84
69208;SHT31;56321;47.662;8.878;2023-03-13T15:55:08;20.67;42.37
69208;SHT31;56321;47.662;8.878;2023-03-13T15:57:35;20.63;42.47
69208;SHT31;56321;47.662;8.878;2023-03-13T16:00:03;20.57;42.93
69208;SHT31;56321;47.662;8.878;2023-03-13T16:02:31;20.55;42.85
69208;SHT31;56321;47.662;8.878;2023-03-13T16:04:57;20.52;42.83
69208;SHT31;56321;47.662;8.878;2023-03-13T16:07:22;20.54;42.76
69208;SHT31;56321;47.662;8.878;2023-03-13T16:09:49;20.54;42.83
69208;SHT31;56321;47.662;8.878;2023-03-13T16:12:14;20.51;43.07
69208;SHT31;56321;47.662;8.878;2023-03-13T16:14:40;20.48;42.82
69208;SHT31;56321;47.662;8.878;2023-03-13T16:17:13;20.41;43.23
69208;SHT31;56321;47.662;8.878;2023-03-13T16:19:39;20.34;43.03
69208;SHT31;56321;47.662;8.878;2023-03-13T16:22:04;20.27;43.20
69208;SHT31;56321;47.662;8.878;2023-03-13T16:24:29;20.20;43.22
69208;SHT31;56321;47.662;8.878;2023-03-13T16:26:55;20.14;43.46
69208;SHT31;56321;47.662;8.878;2023-03-13T16:29:20;20.09;43.38
69208;SHT31;56321;47.662;8.878;2023-03-13T16:31:45;20.05;43.63
69208;SHT31;56321;47.662;8.878;2023-03-13T16:34:11;20.03;43.87
69208;SHT31;56321;47.662;8.878;2023-03-13T16:36:36;20.00;44.15
69208;SHT31;56321;47.662;8.878;2023-03-13T16:39:04;19.96;44.63
69208;SHT31;56321;47.662;8.878;2023-03-13T16:41:30;19.92;44.55
69208;SHT31;56321;47.662;8.878;2023-03-13T16:43:57;19.80;44.83
69208;SHT31;56321;47.662;8.878;2023-03-13T16:46:45;19.69;44.65
69208;SHT31;56321;47.662;8.878;2023-03-13T16:49:13;19.57;44.94
69208;SHT31;56321;47.662;8.878;2023-03-13T16:51:39;19.51;45.07
69208;SHT31;56321;47.662;8.878;2023-03-13T16:54:05;19.42;45.62
69208;SHT31;56321;47.662;8.878;2023-03-13T16:56:39;19.34;45.42
69208;SHT31;56321;47.662;8.878;2023-03-13T16:59:15;19.24;46.04
69208;SHT31;56321;47.662;8.878;2023-03-13T17:01:42;19.14;45.94
69208;SHT31;56321;47.662;8.878;2023-03-13T17:04:08;19.06;46.32
69208;SHT31;56321;47.662;8.878;2023-03-13T17:06:38;18.94;46.97
69208;SHT31;56321;47.662;8.878;2023-03-13T17:09:11;18.86;47.06
69208;SHT31;56321;47.662;8.878;2023-03-13T17:11:37;18.76;47.00
69208;SHT31;56321;47.662;8.878;2023-03-13T17:14:02;18.66;46.23
69208;SHT31;56321;47.662;8.878;2023-03-13T17:16:30;18.56;46.27
69208;SHT31;56321;47.662;8.878;2023-03-13T17:18:57;18.49;46.68
69208;SHT31;56321;47.662;8.878;2023-03-13T17:21:26;18.44;46.70
69208;SHT31;56321;47.662;8.878;2023-03-13T17:23:52;18.35;47.11
69208;SHT31;56321;47.662;8.878;2023-03-13T17:28:44;18.17;47.60
69208;SHT31;56321;47.662;8.878;2023-03-13T17:31:09;18.07;47.58
69208;SHT31;56321;47.662;8.878;2023-03-13T17:33:35;17.98;47.95